createdAt,value
2016-12-29T00:00:18.572Z,1021.15
2016-12-29T00:00:59.300Z,1021.18
2016-12-29T00:01:39.933Z,1021.18
2016-12-29T00:02:20.575Z,1021.16
2016-12-29T00:03:01.229Z,1021.21
2016-12-29T00:03:41.855Z,1021.11
2016-12-29T00:04:22.493Z,1021.19
2016-12-29T00:05:03.195Z,1021.16
2016-12-29T00:05:43.837Z,1021.18
2016-12-29T00:06:24.470Z,1021.17
2016-12-29T00:07:05.169Z,1021.13
2016-12-29T00:07:45.792Z,1021.15
2016-12-29T00:08:26.442Z,1021.14
2016-12-29T00:09:07.124Z,1021.13
2016-12-29T00:09:47.756Z,1021.15
2016-12-29T00:10:28.388Z,1021.15
2016-12-29T00:11:09.061Z,1021.12
2016-12-29T00:11:49.700Z,1021.1
2016-12-29T00:12:30.347Z,1021.07
2016-12-29T00:13:11.068Z,1021.07
2016-12-29T00:13:51.705Z,1021.02
2016-12-29T00:14:32.326Z,1021
2016-12-29T00:15:12.983Z,1021.07
2016-12-29T00:15:53.615Z,1021
2016-12-29T00:16:34.248Z,1021
2016-12-29T00:17:14.896Z,1020.99
2016-12-29T00:17:55.529Z,1021.02
2016-12-29T00:18:36.166Z,1021.05
2016-12-29T00:19:16.830Z,1021.05
2016-12-29T00:19:57.455Z,1021
2016-12-29T00:20:38.087Z,1021
2016-12-29T00:21:18.742Z,1021.03
2016-12-29T00:21:59.378Z,1021
2016-12-29T00:22:40.003Z,1021
2016-12-29T00:23:20.685Z,1021
2016-12-29T00:24:01.307Z,1021.04
2016-12-29T00:24:41.954Z,1020.97
2016-12-29T00:25:22.616Z,1021.02
2016-12-29T00:26:03.248Z,1021.02
2016-12-29T00:26:43.893Z,1020.98
2016-12-29T00:27:24.572Z,1020.95
2016-12-29T00:28:05.292Z,1020.97
2016-12-29T00:28:45.937Z,1021
2016-12-29T00:29:26.564Z,1020.97
2016-12-29T00:30:07.190Z,1020.95
2016-12-29T00:30:47.829Z,1020.94
2016-12-29T00:31:28.492Z,1020.94
2016-12-29T00:32:09.184Z,1020.91
2016-12-29T00:32:49.843Z,1020.95
2016-12-29T00:33:30.486Z,1020.92
2016-12-29T00:34:11.130Z,1020.89
2016-12-29T00:34:51.820Z,1020.88
2016-12-29T00:35:32.443Z,1020.87
2016-12-29T00:36:13.090Z,1020.85
2016-12-29T00:36:53.765Z,1020.88
2016-12-29T00:37:34.402Z,1020.91
2016-12-29T00:38:15.026Z,1020.85
2016-12-29T00:38:55.655Z,1020.91
2016-12-29T00:39:36.298Z,1020.87
2016-12-29T00:40:16.924Z,1020.9
2016-12-29T00:40:57.551Z,1020.88
2016-12-29T00:41:38.181Z,1020.91
2016-12-29T00:42:18.861Z,1020.87
2016-12-29T00:42:59.478Z,1020.94
2016-12-29T00:43:40.122Z,1020.94
2016-12-29T00:44:20.759Z,1020.92
2016-12-29T00:45:01.394Z,1020.98
2016-12-29T00:45:42.050Z,1020.96
2016-12-29T00:46:22.683Z,1020.95
2016-12-29T00:47:03.315Z,1020.94
2016-12-29T00:47:43.946Z,1020.97
2016-12-29T00:48:24.628Z,1021
2016-12-29T00:49:05.262Z,1020.96
2016-12-29T00:49:45.890Z,1020.97
2016-12-29T00:50:26.550Z,1020.98
2016-12-29T00:51:07.191Z,1020.97
2016-12-29T00:51:47.814Z,1020.96
2016-12-29T00:52:28.485Z,1020.93
2016-12-29T00:53:09.128Z,1020.94
2016-12-29T00:53:49.767Z,1020.93
2016-12-29T00:54:30.455Z,1020.89
2016-12-29T00:55:11.083Z,1020.92
2016-12-29T00:55:51.719Z,1020.92
2016-12-29T00:56:32.382Z,1020.91
2016-12-29T00:57:13.025Z,1020.85
2016-12-29T00:57:53.655Z,1020.86
2016-12-29T00:58:34.366Z,1020.87
2016-12-29T00:59:14.996Z,1020.83
2016-12-29T00:59:55.629Z,1020.81
2016-12-29T01:00:36.335Z,1020.83
2016-12-29T01:01:16.961Z,1020.78
2016-12-29T01:01:57.623Z,1020.78
2016-12-29T01:02:38.241Z,1020.8
2016-12-29T01:03:18.895Z,1020.8
2016-12-29T01:03:59.605Z,1020.78
2016-12-29T01:04:40.252Z,1020.78
2016-12-29T01:05:20.884Z,1020.73
2016-12-29T01:06:01.573Z,1020.74
2016-12-29T01:06:42.215Z,1020.76
2016-12-29T01:07:22.905Z,1020.73
2016-12-29T01:08:03.589Z,1020.73
2016-12-29T01:08:44.218Z,1020.68
2016-12-29T01:09:24.969Z,1020.69
2016-12-29T01:10:05.616Z,1020.67
2016-12-29T01:10:46.281Z,1020.66
2016-12-29T01:11:26.944Z,1020.71
2016-12-29T01:12:07.639Z,1020.7
2016-12-29T01:12:48.296Z,1020.68
2016-12-29T01:13:28.920Z,1020.65
2016-12-29T01:14:09.548Z,1020.68
2016-12-29T01:14:50.230Z,1020.74
2016-12-29T01:15:30.866Z,1020.77
2016-12-29T01:16:11.491Z,1020.73
2016-12-29T01:16:52.162Z,1020.69
2016-12-29T01:17:32.797Z,1020.73
2016-12-29T01:18:13.426Z,1020.71
2016-12-29T01:18:54.051Z,1020.73
2016-12-29T01:19:34.683Z,1020.69
2016-12-29T01:20:15.308Z,1020.72
2016-12-29T01:20:55.942Z,1020.7
2016-12-29T01:21:36.569Z,1020.72
2016-12-29T01:22:17.223Z,1020.71
2016-12-29T01:22:57.849Z,1020.73
2016-12-29T01:23:38.481Z,1020.74
2016-12-29T01:24:19.152Z,1020.67
2016-12-29T01:24:59.783Z,1020.7
2016-12-29T01:25:40.414Z,1020.72
2016-12-29T01:26:21.109Z,1020.75
2016-12-29T01:27:01.748Z,1020.72
2016-12-29T01:27:42.375Z,1020.71
2016-12-29T01:28:23.034Z,1020.75
2016-12-29T01:29:03.664Z,1020.73
2016-12-29T01:29:44.287Z,1020.74
2016-12-29T01:30:24.975Z,1020.75
2016-12-29T01:31:05.605Z,1020.76
2016-12-29T01:31:46.244Z,1020.75
2016-12-29T01:32:26.929Z,1020.79
2016-12-29T01:33:07.582Z,1020.76
2016-12-29T01:33:48.211Z,1020.79
2016-12-29T01:34:28.925Z,1020.76
2016-12-29T01:35:09.560Z,1020.79
2016-12-29T01:35:50.197Z,1020.79
2016-12-29T01:36:30.887Z,1020.74
2016-12-29T01:37:11.510Z,1020.76
2016-12-29T01:37:52.159Z,1020.75
2016-12-29T01:38:32.805Z,1020.76
2016-12-29T01:39:13.439Z,1020.76
2016-12-29T01:39:54.107Z,1020.76
2016-12-29T01:40:34.776Z,1020.77
2016-12-29T01:41:15.424Z,1020.8
2016-12-29T01:41:56.130Z,1020.81
2016-12-29T01:42:36.755Z,1020.8
2016-12-29T01:43:17.463Z,1020.75
2016-12-29T01:43:58.102Z,1020.77
2016-12-29T01:44:38.727Z,1020.83
2016-12-29T01:45:19.439Z,1020.79
2016-12-29T01:46:00.156Z,1020.79
2016-12-29T01:46:40.891Z,1020.8
2016-12-29T01:47:21.458Z,1020.81
2016-12-29T01:48:02.095Z,1020.84
2016-12-29T01:48:42.764Z,1020.85
2016-12-29T01:49:23.383Z,1020.84
2016-12-29T01:50:04.017Z,1020.83
2016-12-29T01:50:44.689Z,1020.85
2016-12-29T01:51:25.332Z,1020.85
2016-12-29T01:52:06.005Z,1020.88
2016-12-29T01:52:46.710Z,1020.91
2016-12-29T01:53:27.363Z,1020.89
2016-12-29T01:54:08.001Z,1020.91
2016-12-29T01:54:48.731Z,1020.9
2016-12-29T01:55:29.356Z,1020.88
2016-12-29T01:56:09.984Z,1020.88
2016-12-29T01:56:50.652Z,1020.9
2016-12-29T01:57:31.302Z,1020.87
2016-12-29T01:58:11.924Z,1020.89
2016-12-29T01:58:52.640Z,1020.88
2016-12-29T01:59:33.275Z,1020.89
2016-12-29T02:00:13.924Z,1020.9
2016-12-29T02:00:54.625Z,1020.88
2016-12-29T02:01:35.264Z,1020.89
2016-12-29T02:02:15.902Z,1020.87
2016-12-29T02:02:56.641Z,1020.85
2016-12-29T02:03:37.279Z,1020.84
2016-12-29T02:04:17.909Z,1020.83
2016-12-29T02:04:58.560Z,1020.82
2016-12-29T02:05:39.323Z,1020.84
2016-12-29T02:06:19.966Z,1020.84
2016-12-29T02:07:00.593Z,1020.81
2016-12-29T02:07:41.230Z,1020.84
2016-12-29T02:08:21.867Z,1020.79
2016-12-29T02:09:02.517Z,1020.81
2016-12-29T02:09:43.163Z,1020.78
2016-12-29T02:10:23.799Z,1020.8
2016-12-29T02:11:05.239Z,1020.78
2016-12-29T02:11:45.866Z,1020.78
2016-12-29T02:12:26.504Z,1020.8
2016-12-29T02:13:07.143Z,1020.76
2016-12-29T02:13:47.808Z,1020.75
2016-12-29T02:14:28.456Z,1020.78
2016-12-29T02:15:09.080Z,1020.76
2016-12-29T02:15:50.673Z,1020.81
2016-12-29T02:16:31.365Z,1020.79
2016-12-29T02:17:12.001Z,1020.78
2016-12-29T02:17:52.692Z,1020.78
2016-12-29T02:18:33.321Z,1020.82
2016-12-29T02:19:14.055Z,1020.78
2016-12-29T02:19:54.701Z,1020.82
2016-12-29T02:20:35.329Z,1020.82
2016-12-29T02:21:15.982Z,1020.8
2016-12-29T02:21:56.616Z,1020.81
2016-12-29T02:22:37.243Z,1020.81
2016-12-29T02:23:17.875Z,1020.83
2016-12-29T02:23:58.565Z,1020.82
2016-12-29T02:24:39.198Z,1020.83
2016-12-29T02:25:19.922Z,1020.83
2016-12-29T02:26:00.548Z,1020.83
2016-12-29T02:26:41.192Z,1020.79
2016-12-29T02:27:21.809Z,1020.8
2016-12-29T02:28:02.440Z,1020.78
2016-12-29T02:28:43.175Z,1020.77
2016-12-29T02:29:23.721Z,1020.79
2016-12-29T02:30:04.399Z,1020.78
2016-12-29T02:30:45.031Z,1020.76
2016-12-29T02:31:25.666Z,1020.76
2016-12-29T02:32:06.414Z,1020.79
2016-12-29T02:32:47.037Z,1020.81
2016-12-29T02:33:27.662Z,1020.81
2016-12-29T02:34:08.343Z,1020.82
2016-12-29T02:34:48.968Z,1020.85
2016-12-29T02:35:29.597Z,1020.84
2016-12-29T02:36:10.245Z,1020.86
2016-12-29T02:36:50.894Z,1020.89
2016-12-29T02:37:31.531Z,1020.85
2016-12-29T02:38:12.157Z,1020.9
2016-12-29T02:38:52.793Z,1020.86
2016-12-29T02:39:33.438Z,1020.88
2016-12-29T02:40:14.066Z,1020.9
2016-12-29T02:40:54.706Z,1020.91
2016-12-29T02:41:35.332Z,1020.91
2016-12-29T02:42:15.962Z,1020.92
2016-12-29T02:42:56.589Z,1020.94
2016-12-29T02:43:37.216Z,1020.88
2016-12-29T02:44:17.936Z,1020.95
2016-12-29T02:44:58.561Z,1020.95
2016-12-29T02:45:39.186Z,1020.95
2016-12-29T02:46:19.829Z,1020.93
2016-12-29T02:47:00.456Z,1020.97
2016-12-29T02:47:41.088Z,1020.95
2016-12-29T02:48:21.718Z,1021
2016-12-29T02:49:02.397Z,1021.04
2016-12-29T02:49:43.044Z,1020.98
2016-12-29T02:50:23.794Z,1021.01
2016-12-29T02:51:04.440Z,1020.98
2016-12-29T02:51:45.069Z,1021.01
2016-12-29T02:52:25.703Z,1021.01
2016-12-29T02:53:06.333Z,1021.02
2016-12-29T02:53:46.977Z,1021.04
2016-12-29T02:54:27.701Z,1021.05
2016-12-29T02:55:08.350Z,1021.04
2016-12-29T02:55:48.980Z,1021.07
2016-12-29T02:56:30.170Z,1021.02
2016-12-29T02:57:10.803Z,1021.08
2016-12-29T02:57:51.457Z,1021.05
2016-12-29T02:58:32.090Z,1021.04
2016-12-29T02:59:12.717Z,1021.03
2016-12-29T02:59:53.349Z,1021.04
2016-12-29T03:00:34.009Z,1021
2016-12-29T03:01:14.706Z,1021.03
2016-12-29T03:01:55.505Z,1021.02
2016-12-29T03:02:36.137Z,1020.99
2016-12-29T03:03:16.799Z,1021.02
2016-12-29T03:03:57.565Z,1021.02
2016-12-29T03:04:38.483Z,1020.99
2016-12-29T03:05:19.181Z,1021.02
2016-12-29T03:05:59.912Z,1021
2016-12-29T03:06:40.541Z,1020.94
2016-12-29T03:07:21.711Z,1021.02
2016-12-29T03:08:02.340Z,1020.99
2016-12-29T03:08:42.973Z,1020.95
2016-12-29T03:09:23.623Z,1020.93
2016-12-29T03:10:04.318Z,1020.98
2016-12-29T03:10:44.944Z,1020.96
2016-12-29T03:11:25.568Z,1021
2016-12-29T03:12:06.195Z,1020.95
2016-12-29T03:12:46.826Z,1020.97
2016-12-29T03:13:27.452Z,1020.99
2016-12-29T03:14:08.110Z,1020.93
2016-12-29T03:14:48.737Z,1020.91
2016-12-29T03:15:29.378Z,1020.89
2016-12-29T03:16:10.011Z,1020.93
2016-12-29T03:16:50.624Z,1020.84
2016-12-29T03:17:31.255Z,1020.87
2016-12-29T03:18:11.891Z,1020.9
2016-12-29T03:18:52.561Z,1020.9
2016-12-29T03:19:33.195Z,1020.86
2016-12-29T03:20:13.821Z,1020.93
2016-12-29T03:20:54.519Z,1020.84
2016-12-29T03:21:35.163Z,1020.88
2016-12-29T03:22:15.793Z,1020.86
2016-12-29T03:22:56.478Z,1020.9
2016-12-29T03:23:37.124Z,1020.89
2016-12-29T03:24:17.752Z,1020.86
2016-12-29T03:24:58.434Z,1020.92
2016-12-29T03:25:39.103Z,1020.88
2016-12-29T03:26:19.740Z,1020.86
2016-12-29T03:27:00.436Z,1020.84
2016-12-29T03:27:41.071Z,1020.85
2016-12-29T03:28:21.705Z,1020.84
2016-12-29T03:29:02.362Z,1020.81
2016-12-29T03:29:43.002Z,1020.81
2016-12-29T03:30:23.738Z,1020.83
2016-12-29T03:31:04.305Z,1020.82
2016-12-29T03:31:44.948Z,1020.82
2016-12-29T03:32:25.643Z,1020.76
2016-12-29T03:33:06.290Z,1020.8
2016-12-29T03:33:46.948Z,1020.8
2016-12-29T03:34:27.628Z,1020.8
2016-12-29T03:35:08.264Z,1020.78
2016-12-29T03:35:48.956Z,1020.79
2016-12-29T03:36:29.587Z,1020.79
2016-12-29T03:37:10.216Z,1020.81
2016-12-29T03:37:51.680Z,1020.83
2016-12-29T03:38:32.309Z,1020.77
2016-12-29T03:39:12.928Z,1020.87
2016-12-29T03:39:53.578Z,1020.8
2016-12-29T03:40:34.202Z,1020.86
2016-12-29T03:41:14.832Z,1020.86
2016-12-29T03:41:55.503Z,1020.85
2016-12-29T03:42:36.132Z,1020.83
2016-12-29T03:43:16.824Z,1020.84
2016-12-29T03:43:57.509Z,1020.87
2016-12-29T03:44:38.152Z,1020.87
2016-12-29T03:45:18.776Z,1020.87
2016-12-29T03:45:59.479Z,1020.89
2016-12-29T03:46:40.110Z,1020.87
2016-12-29T03:47:20.727Z,1020.86
2016-12-29T03:48:01.398Z,1020.86
2016-12-29T03:48:42.022Z,1020.83
2016-12-29T03:49:22.651Z,1020.83
2016-12-29T03:50:03.276Z,1020.73
2016-12-29T03:50:43.902Z,1020.84
2016-12-29T03:51:24.542Z,1020.83
2016-12-29T03:52:05.174Z,1020.82
2016-12-29T03:52:45.820Z,1020.79
2016-12-29T03:53:26.449Z,1020.83
2016-12-29T03:54:07.158Z,1020.81
2016-12-29T03:54:47.807Z,1020.77
2016-12-29T03:55:28.430Z,1020.84
2016-12-29T03:56:09.064Z,1020.79
2016-12-29T03:56:49.696Z,1020.78
2016-12-29T03:57:30.316Z,1020.77
2016-12-29T03:58:10.948Z,1020.73
2016-12-29T03:58:51.578Z,1020.71
2016-12-29T03:59:32.206Z,1020.73
2016-12-29T04:00:12.856Z,1020.69
2016-12-29T04:00:53.487Z,1020.68
2016-12-29T04:01:34.110Z,1020.6
2016-12-29T04:02:14.806Z,1020.6
2016-12-29T04:02:55.431Z,1020.66
2016-12-29T04:03:36.064Z,1020.65
2016-12-29T04:04:16.690Z,1020.6
2016-12-29T04:04:57.329Z,1020.61
2016-12-29T04:05:37.950Z,1020.58
2016-12-29T04:06:18.575Z,1020.61
2016-12-29T04:06:59.206Z,1020.59
2016-12-29T04:07:41.866Z,1020.59
2016-12-29T04:08:22.514Z,1020.61
2016-12-29T04:09:03.145Z,1020.66
2016-12-29T04:09:43.787Z,1020.62
2016-12-29T04:10:24.427Z,1020.62
2016-12-29T04:11:05.130Z,1020.59
2016-12-29T04:11:45.780Z,1020.63
2016-12-29T04:12:26.430Z,1020.62
2016-12-29T04:13:07.059Z,1020.6
2016-12-29T04:13:47.702Z,1020.6
2016-12-29T04:14:28.323Z,1020.62
2016-12-29T04:15:08.978Z,1020.63
2016-12-29T04:15:49.603Z,1020.63
2016-12-29T04:16:30.235Z,1020.6
2016-12-29T04:17:10.901Z,1020.6
2016-12-29T04:17:51.531Z,1020.58
2016-12-29T04:18:32.169Z,1020.55
2016-12-29T04:19:12.833Z,1020.58
2016-12-29T04:19:53.458Z,1020.56
2016-12-29T04:20:34.092Z,1020.56
2016-12-29T04:21:14.739Z,1020.57
2016-12-29T04:21:55.368Z,1020.55
2016-12-29T04:22:35.998Z,1020.54
2016-12-29T04:23:16.628Z,1020.51
2016-12-29T04:23:57.258Z,1020.53
2016-12-29T04:24:37.902Z,1020.51
2016-12-29T04:25:18.551Z,1020.49
2016-12-29T04:25:59.168Z,1020.55
2016-12-29T04:26:39.840Z,1020.54
2016-12-29T04:27:20.480Z,1020.52
2016-12-29T04:28:01.102Z,1020.53
2016-12-29T04:28:41.734Z,1020.54
2016-12-29T04:29:22.364Z,1020.57
2016-12-29T04:30:03.011Z,1020.53
2016-12-29T04:30:43.637Z,1020.53
2016-12-29T04:31:24.279Z,1020.57
2016-12-29T04:32:04.930Z,1020.59
2016-12-29T04:32:45.562Z,1020.57
2016-12-29T04:33:26.188Z,1020.54
2016-12-29T04:34:06.819Z,1020.52
2016-12-29T04:34:47.454Z,1020.55
2016-12-29T04:35:28.079Z,1020.52
2016-12-29T04:36:08.714Z,1020.52
2016-12-29T04:36:49.334Z,1020.52
2016-12-29T04:37:29.986Z,1020.5
2016-12-29T04:38:10.617Z,1020.51
2016-12-29T04:38:51.252Z,1020.5
2016-12-29T04:39:31.915Z,1020.54
2016-12-29T04:40:12.611Z,1020.53
2016-12-29T04:40:53.246Z,1020.52
2016-12-29T04:41:33.894Z,1020.51
2016-12-29T04:42:14.522Z,1020.55
2016-12-29T04:42:55.150Z,1020.49
2016-12-29T04:43:35.776Z,1020.58
2016-12-29T04:44:16.413Z,1020.52
2016-12-29T04:44:57.086Z,1020.48
2016-12-29T04:45:37.721Z,1020.45
2016-12-29T04:46:18.348Z,1020.47
2016-12-29T04:46:59.006Z,1020.49
2016-12-29T04:47:39.626Z,1020.5
2016-12-29T04:48:20.259Z,1020.51
2016-12-29T04:49:00.925Z,1020.52
2016-12-29T04:49:41.550Z,1020.48
2016-12-29T04:50:22.180Z,1020.47
2016-12-29T04:51:02.856Z,1020.51
2016-12-29T04:51:43.488Z,1020.51
2016-12-29T04:52:24.120Z,1020.51
2016-12-29T04:53:04.796Z,1020.53
2016-12-29T04:53:45.414Z,1020.55
2016-12-29T04:54:26.035Z,1020.58
2016-12-29T04:55:06.663Z,1020.56
2016-12-29T04:55:47.333Z,1020.57
2016-12-29T04:56:27.969Z,1020.58
2016-12-29T04:57:08.593Z,1020.55
2016-12-29T04:57:49.220Z,1020.58
2016-12-29T04:58:29.855Z,1020.57
2016-12-29T04:59:10.491Z,1020.58
2016-12-29T04:59:51.122Z,1020.63
2016-12-29T05:00:31.743Z,1020.63
2016-12-29T05:01:12.372Z,1020.6
2016-12-29T05:01:53.065Z,1020.56
2016-12-29T05:02:33.706Z,1020.56
2016-12-29T05:03:14.416Z,1020.57
2016-12-29T05:03:55.045Z,1020.56
2016-12-29T05:04:35.692Z,1020.6
2016-12-29T05:05:16.417Z,1020.59
2016-12-29T05:05:57.104Z,1020.65
2016-12-29T05:06:37.728Z,1020.65
2016-12-29T05:07:18.356Z,1020.67
2016-12-29T05:07:58.986Z,1020.69
2016-12-29T05:08:39.617Z,1020.74
2016-12-29T05:09:20.391Z,1020.8
2016-12-29T05:10:01.029Z,1020.75
2016-12-29T05:10:41.728Z,1020.75
2016-12-29T05:11:22.366Z,1020.69
2016-12-29T05:12:02.994Z,1020.7
2016-12-29T05:12:43.625Z,1020.73
2016-12-29T05:13:24.250Z,1020.77
2016-12-29T05:14:04.884Z,1020.82
2016-12-29T05:14:45.551Z,1020.78
2016-12-29T05:15:26.190Z,1020.77
2016-12-29T05:16:06.837Z,1020.82
2016-12-29T05:16:47.477Z,1020.78
2016-12-29T05:17:28.105Z,1020.8
2016-12-29T05:18:08.763Z,1020.75
2016-12-29T05:18:49.390Z,1020.79
2016-12-29T05:19:30.018Z,1020.77
2016-12-29T05:20:10.646Z,1020.81
2016-12-29T05:20:51.264Z,1020.79
2016-12-29T05:21:31.895Z,1020.81
2016-12-29T05:22:12.624Z,1020.77
2016-12-29T05:22:53.257Z,1020.83
2016-12-29T05:23:33.891Z,1020.79
2016-12-29T05:24:14.516Z,1020.76
2016-12-29T05:24:55.150Z,1020.78
2016-12-29T05:25:35.788Z,1020.81
2016-12-29T05:26:16.428Z,1020.85
2016-12-29T05:26:57.087Z,1020.84
2016-12-29T05:27:37.715Z,1020.84
2016-12-29T05:28:18.343Z,1020.81
2016-12-29T05:28:59.014Z,1020.82
2016-12-29T05:29:39.642Z,1020.83
2016-12-29T05:30:20.280Z,1020.83
2016-12-29T05:31:00.928Z,1020.85
2016-12-29T05:31:41.557Z,1020.84
2016-12-29T05:32:22.292Z,1020.86
2016-12-29T05:33:02.958Z,1020.85
2016-12-29T05:33:43.579Z,1020.86
2016-12-29T05:34:24.210Z,1020.87
2016-12-29T05:35:04.930Z,1020.87
2016-12-29T05:35:45.564Z,1020.85
2016-12-29T05:36:26.190Z,1020.87
2016-12-29T05:37:06.839Z,1020.92
2016-12-29T05:37:47.484Z,1020.88
2016-12-29T05:38:28.183Z,1020.91
2016-12-29T05:39:08.803Z,1020.91
2016-12-29T05:39:49.427Z,1020.92
2016-12-29T05:40:30.052Z,1020.89
2016-12-29T05:41:10.706Z,1020.97
2016-12-29T05:41:51.344Z,1020.9
2016-12-29T05:42:31.970Z,1020.94
2016-12-29T05:43:12.719Z,1020.96
2016-12-29T05:43:53.355Z,1020.96
2016-12-29T05:44:33.993Z,1021.02
2016-12-29T05:45:14.678Z,1020.95
2016-12-29T05:45:55.300Z,1020.95
2016-12-29T05:46:35.931Z,1020.98
2016-12-29T05:47:16.587Z,1020.95
2016-12-29T05:47:57.221Z,1020.97
2016-12-29T05:48:37.846Z,1020.97
2016-12-29T05:49:18.472Z,1020.95
2016-12-29T05:49:59.107Z,1020.96
2016-12-29T05:50:39.734Z,1021
2016-12-29T05:51:20.458Z,1020.99
2016-12-29T05:52:01.080Z,1020.99
2016-12-29T05:52:41.710Z,1021.02
2016-12-29T05:53:22.384Z,1021.02
2016-12-29T05:54:03.013Z,1021.02
2016-12-29T05:54:43.643Z,1021.04
2016-12-29T05:55:24.274Z,1021.01
2016-12-29T05:56:04.896Z,1021.07
2016-12-29T05:56:45.532Z,1021.03
2016-12-29T05:57:26.158Z,1021.04
2016-12-29T05:58:06.846Z,1021.04
2016-12-29T05:58:47.469Z,1021.04
2016-12-29T05:59:28.093Z,1021.02
2016-12-29T06:00:08.733Z,1021.02
2016-12-29T06:00:49.360Z,1021.03
2016-12-29T06:01:29.989Z,1021.04
2016-12-29T06:02:10.610Z,1021.05
2016-12-29T06:02:51.243Z,1021.03
2016-12-29T06:03:31.879Z,1021.08
2016-12-29T06:04:12.589Z,1021.06
2016-12-29T06:04:53.243Z,1021.04
2016-12-29T06:05:33.886Z,1021.04
2016-12-29T06:06:14.516Z,1021.07
2016-12-29T06:06:55.156Z,1021.08
2016-12-29T06:07:35.801Z,1021.12
2016-12-29T06:08:16.442Z,1021.13
2016-12-29T06:08:57.068Z,1021.11
2016-12-29T06:09:37.822Z,1021.1
2016-12-29T06:10:18.465Z,1021.09
2016-12-29T06:10:59.099Z,1021.09
2016-12-29T06:11:39.732Z,1021.11
2016-12-29T06:12:20.431Z,1021.1
2016-12-29T06:13:01.068Z,1021.13
2016-12-29T06:13:41.693Z,1021.09
2016-12-29T06:14:22.315Z,1021.11
2016-12-29T06:15:02.941Z,1021.15
2016-12-29T06:15:43.614Z,1021.18
2016-12-29T06:16:24.256Z,1021.17
2016-12-29T06:17:04.900Z,1021.17
2016-12-29T06:17:45.626Z,1021.18
2016-12-29T06:18:26.252Z,1021.18
2016-12-29T06:19:06.875Z,1021.18
2016-12-29T06:19:47.511Z,1021.19
2016-12-29T06:20:28.221Z,1021.22
2016-12-29T06:21:08.852Z,1021.19
2016-12-29T06:21:49.486Z,1021.19
2016-12-29T06:22:30.219Z,1021.2
2016-12-29T06:23:10.851Z,1021.23
2016-12-29T06:23:51.480Z,1021.22
2016-12-29T06:24:32.099Z,1021.24
2016-12-29T06:25:12.729Z,1021.24
2016-12-29T06:25:53.361Z,1021.21
2016-12-29T06:26:33.982Z,1021.21
2016-12-29T06:27:14.682Z,1021.21
2016-12-29T06:27:55.303Z,1021.24
2016-12-29T06:28:35.926Z,1021.22
2016-12-29T06:29:16.616Z,1021.27
2016-12-29T06:29:57.245Z,1021.26
2016-12-29T06:30:37.874Z,1021.27
2016-12-29T06:31:18.508Z,1021.33
2016-12-29T06:31:59.136Z,1021.31
2016-12-29T06:32:39.776Z,1021.31
2016-12-29T06:33:20.411Z,1021.32
2016-12-29T06:34:01.039Z,1021.3
2016-12-29T06:34:41.667Z,1021.3
2016-12-29T06:35:22.372Z,1021.32
2016-12-29T06:36:03.019Z,1021.35
2016-12-29T06:36:43.655Z,1021.34
2016-12-29T06:37:24.291Z,1021.35
2016-12-29T06:38:04.917Z,1021.35
2016-12-29T06:38:45.552Z,1021.37
2016-12-29T06:39:26.174Z,1021.36
2016-12-29T06:40:06.802Z,1021.34
2016-12-29T06:40:47.426Z,1021.37
2016-12-29T06:41:28.074Z,1021.36
2016-12-29T06:42:08.699Z,1021.37
2016-12-29T06:42:49.388Z,1021.33
2016-12-29T06:43:30.013Z,1021.35
2016-12-29T06:44:10.632Z,1021.4
2016-12-29T06:44:51.269Z,1021.38
2016-12-29T06:45:31.896Z,1021.43
2016-12-29T06:46:12.525Z,1021.41
2016-12-29T06:46:53.162Z,1021.39
2016-12-29T06:47:33.883Z,1021.35
2016-12-29T06:48:14.524Z,1021.39
2016-12-29T06:48:55.154Z,1021.46
2016-12-29T06:49:35.780Z,1021.37
2016-12-29T06:50:16.405Z,1021.42
2016-12-29T06:50:57.033Z,1021.39
2016-12-29T06:51:37.667Z,1021.42
2016-12-29T06:52:18.320Z,1021.47
2016-12-29T06:52:58.942Z,1021.45
2016-12-29T06:53:39.600Z,1021.42
2016-12-29T06:54:20.224Z,1021.45
2016-12-29T06:55:00.857Z,1021.42
2016-12-29T06:55:41.485Z,1021.45
2016-12-29T06:56:22.122Z,1021.46
2016-12-29T06:57:02.776Z,1021.48
2016-12-29T06:57:43.403Z,1021.5
2016-12-29T06:58:24.042Z,1021.51
2016-12-29T06:59:04.680Z,1021.52
2016-12-29T06:59:45.305Z,1021.52
2016-12-29T07:00:25.942Z,1021.5
2016-12-29T07:01:06.566Z,1021.52
2016-12-29T07:01:47.204Z,1021.55
2016-12-29T07:02:27.826Z,1021.53
2016-12-29T07:03:08.454Z,1021.5
2016-12-29T07:03:49.083Z,1021.53
2016-12-29T07:04:29.716Z,1021.51
2016-12-29T07:05:10.343Z,1021.53
2016-12-29T07:05:50.966Z,1021.53
2016-12-29T07:06:31.632Z,1021.53
2016-12-29T07:07:12.291Z,1021.56
2016-12-29T07:07:53.004Z,1021.53
2016-12-29T07:08:33.553Z,1021.59
2016-12-29T07:09:14.235Z,1021.54
2016-12-29T07:09:54.880Z,1021.53
2016-12-29T07:10:35.512Z,1021.59
2016-12-29T07:11:16.135Z,1021.58
2016-12-29T07:11:56.765Z,1021.52
2016-12-29T07:12:37.389Z,1021.58
2016-12-29T07:13:18.074Z,1021.59
2016-12-29T07:13:58.715Z,1021.54
2016-12-29T07:14:39.346Z,1021.56
2016-12-29T07:15:20.036Z,1021.55
2016-12-29T07:16:00.675Z,1021.55
2016-12-29T07:16:41.306Z,1021.57
2016-12-29T07:17:21.961Z,1021.55
2016-12-29T07:18:02.588Z,1021.54
2016-12-29T07:18:43.225Z,1021.53
2016-12-29T07:19:23.886Z,1021.52
2016-12-29T07:20:04.599Z,1021.52
2016-12-29T07:20:45.238Z,1021.63
2016-12-29T07:21:25.879Z,1021.59
2016-12-29T07:22:06.524Z,1021.58
2016-12-29T07:22:47.152Z,1021.54
2016-12-29T07:23:27.771Z,1021.56
2016-12-29T07:24:08.396Z,1021.55
2016-12-29T07:24:49.024Z,1021.53
2016-12-29T07:25:29.673Z,1021.53
2016-12-29T07:26:10.310Z,1021.54
2016-12-29T07:26:50.940Z,1021.55
2016-12-29T07:27:31.582Z,1021.54
2016-12-29T07:28:12.218Z,1021.54
2016-12-29T07:28:52.866Z,1021.58
2016-12-29T07:29:33.546Z,1021.52
2016-12-29T07:30:14.193Z,1021.55
2016-12-29T07:30:54.821Z,1021.58
2016-12-29T07:31:35.524Z,1021.52
2016-12-29T07:32:16.141Z,1021.55
2016-12-29T07:32:56.761Z,1021.48
2016-12-29T07:33:37.442Z,1021.5
2016-12-29T07:34:18.067Z,1021.47
2016-12-29T07:34:58.692Z,1021.51
2016-12-29T07:35:39.323Z,1021.51
2016-12-29T07:36:19.962Z,1021.49
2016-12-29T07:37:00.603Z,1021.54
2016-12-29T07:37:41.228Z,1021.53
2016-12-29T07:38:21.879Z,1021.52
2016-12-29T07:39:02.504Z,1021.58
2016-12-29T07:39:43.126Z,1021.53
2016-12-29T07:40:23.757Z,1021.52
2016-12-29T07:41:04.388Z,1021.5
2016-12-29T07:41:45.019Z,1021.65
2016-12-29T07:42:25.659Z,1021.54
2016-12-29T07:43:06.286Z,1021.6
2016-12-29T07:43:46.922Z,1021.58
2016-12-29T07:44:27.637Z,1021.61
2016-12-29T07:45:08.280Z,1021.67
2016-12-29T07:45:48.921Z,1021.67
2016-12-29T07:46:29.543Z,1021.63
2016-12-29T07:47:10.173Z,1021.64
2016-12-29T07:47:50.814Z,1021.67
2016-12-29T07:48:31.442Z,1021.67
2016-12-29T07:49:12.084Z,1021.67
2016-12-29T07:49:52.710Z,1021.64
2016-12-29T07:50:33.348Z,1021.66
2016-12-29T07:51:13.972Z,1021.67
2016-12-29T07:51:54.596Z,1021.64
2016-12-29T07:52:35.220Z,1021.67
2016-12-29T07:53:15.869Z,1021.68
2016-12-29T07:53:56.486Z,1021.65
2016-12-29T07:54:37.112Z,1021.71
2016-12-29T07:55:17.733Z,1021.7
2016-12-29T07:55:58.379Z,1021.68
2016-12-29T07:56:39.007Z,1021.71
2016-12-29T07:57:19.635Z,1021.71
2016-12-29T07:58:00.337Z,1021.74
2016-12-29T07:58:41.027Z,1021.75
2016-12-29T07:59:21.651Z,1021.75
2016-12-29T08:00:02.400Z,1021.76
2016-12-29T08:00:43.028Z,1021.68
2016-12-29T08:01:23.654Z,1021.68
2016-12-29T08:02:04.330Z,1021.65
2016-12-29T08:02:44.958Z,1021.65
2016-12-29T08:03:25.596Z,1021.64
2016-12-29T08:04:06.252Z,1021.66
2016-12-29T08:04:46.884Z,1021.64
2016-12-29T08:05:27.526Z,1021.65
2016-12-29T08:06:08.249Z,1021.65
2016-12-29T08:06:48.899Z,1021.7
2016-12-29T08:07:29.547Z,1021.62
2016-12-29T08:08:10.228Z,1021.69
2016-12-29T08:08:50.870Z,1021.7
2016-12-29T08:09:31.574Z,1021.63
2016-12-29T08:10:12.210Z,1021.66
2016-12-29T08:10:52.850Z,1021.63
2016-12-29T08:11:33.517Z,1021.62
2016-12-29T08:12:14.146Z,1021.63
2016-12-29T08:12:54.787Z,1021.64
2016-12-29T08:13:35.485Z,1021.61